Air Navigation Services of Czech Republic  
Last data update:  17.10.2018 18:31:08 UTC Česká verze
   METEO Page displayed:  17.10.2018 18:31:37 UTC  
help
METAR EDDB 171820Z 11003KT CAVOK 13/09 Q1019 NOSIG=
METAR EDDC 171820Z VRB01KT CAVOK 15/08 Q1019 NOSIG=
METAR EDDE 171820Z 13003KT CAVOK 17/11 Q1019 NOSIG=
METAR EDDF 171820Z VRB02KT CAVOK 16/10 Q1018 NOSIG=
METAR EDDM 171820Z 00000KT CAVOK 11/08 Q1019 NOSIG=
METAR EDDN 171820Z 09002KT CAVOK 12/08 Q1019 NOSIG=
METAR EDDP 171820Z 09004KT CAVOK 14/09 Q1019 NOSIG=
METAR EDDT 171820Z 08002KT CAVOK 13/10 Q1019 NOSIG=
METAR EDQM 171750Z 36003KT CAVOK 13/06 Q1019=
METAR EPBY 171800Z 13002KT CAVOK 13/08 Q1020 =
METAR EPGD 171800Z 13003KT 110V180 9000 NSC 14/09 Q1021 =
METAR EPKK 171800Z 04003KT CAVOK 14/08 Q1021 =
METAR EPKT 171800Z VRB02KT CAVOK 13/10 Q1021 =
METAR EPLL 171800Z 07002KT CAVOK 14/09 Q1021 =
METAR EPPO 171800Z 07003KT 9000 NSC 11/07 Q1020 =
METAR EPRZ 171800Z 05004KT CAVOK 12/05 Q1021 =
METAR EPWA 171800Z 10002KT CAVOK 11/07 Q1021 NOSIG=
METAR EPWR 171800Z 14009KT CAVOK 14/07 Q1019 =
METAR LHBP 171800Z 06005KT 020V080 CAVOK 14/08 Q1020 NOSIG=
METAR LHSM NIL
METAR LKBC 171830Z AUTO VRB02KT CAVOK 10/07 Q1018=
METAR LKCV 171800Z 13004KT CAVOK 16/09 Q1019 NOSIG RMK BLU BLU=
METAR LKKB 171800Z 06003KT CAVOK 11/07 Q1019 NOSIG RMK BLU BLU=
METAR LKKU NIL
METAR LKKV 171830Z 33002KT CAVOK 11/08 Q1020 RMK REG QNH 1017=
METAR LKLN 171830Z AUTO 00000KT CAVOK 12/08 Q1019=
METAR LKMT 171830Z 19001KT 7000 NSC 13/12 Q1020 TEMPO 5000 BR RMK REG QNH 1017=
METAR LKNA 171800Z 10004KT CAVOK 13/09 Q1020 NOSIG RMK BLU BLU=
METAR LKPD 171800Z 14004KT CAVOK 15/08 Q1019 RMK BLACK=
METAR LKPR 171830Z 09003KT 060V120 CAVOK 14/08 Q1019 NOSIG RMK REG QNH 1017=
METAR LKTB 171830Z 07005KT CAVOK 16/08 Q1020 NOSIG RMK REG QNH 1017=
METAR LKVO NIL
METAR LOWI 171820Z VRB01KT 9999 FEW090 12/07 Q1019 NOSIG=
METAR LOWL 171820Z AUTO 08003KT 9999 NSC 13/09 Q1019 NOSIG=
METAR LOWS 171820Z 18004KT CAVOK 11/09 Q1019 NOSIG=
METAR LOWW 171820Z 11004KT 9999 -SHRA FEW060 BKN080 17/11 Q1019 NOSIG=
METAR LZIB 171830Z 03007KT 9999 -RA NSC 15/09 Q1020 WS ALL RWY=
METAR LZKZ 171830Z 02006KT CAVOK 12/05 Q1020=
METAR LZMC 171800Z 00000KT CAVOK 18/05 Q1020=
METAR LZPP 171800Z 35003KT CAVOK 14/08 Q1020=
METAR LZSL 171800Z 05003KT 020V080 CAVOK 14/06 Q1021=
METAR LZTT 171830Z 28007KT CAVOK 11/05 Q1022=
METAR LZZI 171800Z VRB01KT CAVOK 13/09 Q1021=